Terminal Aerodrome Forecast
Issued by NWS

Home | Current Version | Previous Version | Text Only | Print | Product List | Glossary On
Versions: 1 2 3 4 5 6 7 8 9 10 11 12 13 14 15 16 17 18 19 20 21
000
FTUS43 KDVN 020500
TAFCID
TAF
KCID 020520Z 0206/0306 14004KT 2SM BR OVC005
      TEMPO 0206/0210 3/4SM BR OVC003
     FM021000 09004KT 3/4SM BR OVC003
     FM021400 10003KT 2SM BR VCSH OVC007 PROB30 0215/0218 1SM -SHRA
      BR SCT009 OVC020
     FM021800 15006KT 4SM -SHRA BR VCTS SCT012CB BKN025 PROB30
      0219/0301 1SM TSRA BR BKN010CB OVC020
     FM030100 31010KT P6SM OVC008
      AMD NOT SKED=

USA.gov is the U.S. government's official web portal to all federal, state and local government web resources and services.